Weather at Billings Logan International Airport

Public forecast

Using degrees Fahrenheit for public forecast. Weather courtesy of forecast.io.

Current aviation weather report (METAR) for Billings Logan International Airport

Retrieved 2021/01/21 13:53 UTC (57 minutes ago):

KBIL 211353Z 00000KT 10SM OVC065 M02/M12 A3005 RMK AO2 SLP206 T10171122

Aviation forecast (TAF) for Billings Logan International Airport

Retrieved 2021/01/21 12:33 UTC (2 hours ago):

TAF KBIL 211131Z 2112/2212 03006KT P6SM BKN080 FM211500 25006KT P6SM VCSH OVC070 FM212100 23006KT P6SM VCSH SCT015 OVC030 FM220300 09008KT 4SM -SN OVC015 FM220600 09008KT 3SM -SN SCT009 OVC012